To NAV CANADA Home Page Login to a new session Search on AWWS site Feedback and Comments Disclaimer Vers la page française équivalente Tips FAQ What's new on the site To the Forecasts and Observations / NOTAM section To "File a Flight Plan" website Publications and other links Update of the User's profile FIC Telephone Numbers My Weather Data Folder Route Weather Data Regional Weather Data Local Weather Data To the Forecasts and Observations / NOTAM section
Request Generated 04/16/2014 at 18:56:37 UTC . Weather information available at that time is displayed.

METAR/TAF

IQALUIT/NU    

METAR CYFB 161800Z 32011KT 4SM IC OVC035 M10/M14 A2954 RMK IC6SC2
SLP008=
METAR CYFB 161700Z 30004KT 5SM IC OVC035 M10/M14 A2956 RMK IC7SC1
SLP013=
SPECI CYFB 161643Z 30004KT 5SM IC BKN035 M10/M14 A2957 RMK SC6
SLP016=
METAR CYFB 161600Z 00000KT 5SM -SN BKN034 M13/M16 A2959 RMK SC7
SLP023=

TAF CYFB 161738Z 1618/1718 30005KT 5SM IC OVC040 TEMPO 1618/1624 P6SM
NSW
FM170000 32010G20KT 3SM -SN OVC030
FM170600 32020G30KT 3/4SM -SN BLSN OVC040 PROB40 1706/1715 1/2SM
-SN BLSN VV005
FM171500 25015KT P6SM BKN050
RMK NXT FCST BY 170000Z=
Your time UTC time
Weather data provided by Environment Canada and NAV CANADA